Time;durP1;ratioP1;P1;durP2;ratioP2;P2;SDS_P1;SDS_P2;PMS_P1;PMS_P2;Temp;Humidity;BMP_temperature;BMP_pressure;BME280_temperature;BME280_humidity;BME280_pressure;Samples;Min_cycle;Max_cycle;Signal;HPM_P1;HPM_P2
2021/06/16 00:00:37;;;;;;;14.40;6.40;;;;;;;;;;6315956;22;20220;-87
2021/06/16 00:03:43;;;;;;;12.45;6.35;;;;;;;;;;6319200;22;20165;-86
2021/06/16 00:06:50;;;;;;;11.25;6.50;;;;;;;;;;6316048;22;20169;-88
2021/06/16 00:09:56;;;;;;;12.70;7.60;;;;;;;;;;6317003;22;20191;-86
2021/06/16 00:13:02;;;;;;;13.27;7.15;;;;;;;;;;6315221;22;20492;-87
2021/06/16 00:16:07;;;;;;;15.13;8.15;;;;;;;;;;6315732;22;20169;-87
2021/06/16 00:19:12;;;;;;;11.10;6.28;;;;;;;;;;6316242;22;20584;-87
2021/06/16 00:22:18;;;;;;;12.30;6.28;;;;;;;;;;6314706;22;20181;-87
2021/06/16 00:25:24;;;;;;;15.70;6.88;;;;;;;;;;6312228;22;20156;-87
2021/06/16 00:28:29;;;;;;;14.50;7.90;;;;;;;;;;6311064;22;20280;-87
2021/06/16 00:31:33;;;;;;;16.15;7.43;;;;;;;;;;6309960;22;20196;-86
2021/06/16 00:34:38;;;;;;;11.90;7.45;;;;;;;;;;6310362;22;20169;-87
2021/06/16 00:37:44;;;;;;;12.07;6.88;;;;;;;;;;6310842;22;20288;-86
2021/06/16 00:40:52;;;;;;;14.40;7.45;;;;;;;;;;6311198;22;20173;-87
2021/06/16 00:43:56;;;;;;;11.57;7.00;;;;;;;;;;6312587;22;20243;-87
2021/06/16 00:47:01;;;;;;;10.63;6.45;;;;;;;;;;6312021;22;20533;-87
2021/06/16 00:50:09;;;;;;;14.13;6.35;;;;;;;;;;6311734;22;20192;-87
2021/06/16 00:53:13;;;;;;;10.68;6.50;;;;;;;;;;6311951;22;20165;-87
2021/06/16 00:56:20;;;;;;;10.07;6.28;;;;;;;;;;6311161;22;20647;-88
2021/06/16 00:59:25;;;;;;;10.68;6.90;;;;;;;;;;6311553;22;20544;-88
2021/06/16 01:02:33;;;;;;;14.02;7.40;;;;;;;;;;6309792;22;20188;-87
2021/06/16 01:05:40;;;;;;;18.10;6.50;;;;;;;;;;6312554;22;20173;-87
2021/06/16 01:08:54;;;;;;;16.17;7.28;;;;;;;;;;6311523;22;20340;-87
2021/06/16 01:12:03;;;;;;;13.63;6.72;;;;;;;;;;6311291;22;20733;-87
2021/06/16 01:15:09;;;;;;;13.20;7.07;;;;;;;;;;6312361;22;20169;-88
2021/06/16 01:18:15;;;;;;;16.02;7.15;;;;;;;;;;6311936;22;20279;-86
2021/06/16 01:21:21;;;;;;;12.32;6.40;;;;;;;;;;6310722;22;20165;-87
2021/06/16 01:24:28;;;;;;;14.40;7.30;;;;;;;;;;6311369;22;20165;-87
2021/06/16 01:27:35;;;;;;;14.20;7.00;;;;;;;;;;6309861;22;20593;-87
2021/06/16 01:30:40;;;;;;;11.77;7.07;;;;;;;;;;6309889;22;20541;-87
2021/06/16 01:33:46;;;;;;;16.40;7.82;;;;;;;;;;6308950;22;20166;-87
2021/06/16 01:36:51;;;;;;;14.65;8.15;;;;;;;;;;6308411;22;20188;-87
2021/06/16 01:39:57;;;;;;;11.48;7.05;;;;;;;;;;6309503;22;20165;-87
2021/06/16 01:43:05;;;;;;;13.07;6.90;;;;;;;;;;6310166;22;20849;-87
2021/06/16 01:46:10;;;;;;;14.25;8.18;;;;;;;;;;6311102;22;20284;-87
2021/06/16 01:49:16;;;;;;;14.68;7.47;;;;;;;;;;6310985;22;20168;-88
2021/06/16 01:52:22;;;;;;;12.63;6.78;;;;;;;;;;6309970;22;20169;-87
2021/06/16 01:55:28;;;;;;;13.82;7.25;;;;;;;;;;6310782;22;20247;-87
2021/06/16 01:58:35;;;;;;;15.35;6.88;;;;;;;;;;6310228;22;20189;-88
2021/06/16 02:01:40;;;;;;;14.00;7.97;;;;;;;;;;6310007;22;20204;-87
2021/06/16 02:04:45;;;;;;;14.43;8.13;;;;;;;;;;6311854;22;20244;-87
2021/06/16 02:07:52;;;;;;;11.25;6.53;;;;;;;;;;6310901;22;20770;-87
2021/06/16 02:10:57;;;;;;;16.42;7.75;;;;;;;;;;6309471;22;20168;-86
2021/06/16 02:14:08;;;;;;;12.55;7.30;;;;;;;;;;6310372;22;20188;-88
2021/06/16 02:17:13;;;;;;;17.45;6.57;;;;;;;;;;6310832;22;20173;-86
2021/06/16 02:20:21;;;;;;;12.32;7.18;;;;;;;;;;6311666;22;20164;-86
2021/06/16 02:23:26;;;;;;;15.15;7.13;;;;;;;;;;6310313;22;20168;-87
2021/06/16 02:26:31;;;;;;;16.75;7.75;;;;;;;;;;6308845;22;20212;-86
2021/06/16 02:29:37;;;;;;;14.60;7.65;;;;;;;;;;6308735;22;20161;-87
2021/06/16 02:32:42;;;;;;;15.98;8.25;;;;;;;;;;6307992;22;20183;-87
2021/06/16 02:35:46;;;;;;;12.20;7.97;;;;;;;;;;6308864;22;20251;-87
2021/06/16 02:38:53;;;;;;;15.75;7.57;;;;;;;;;;6308162;22;20253;-88
2021/06/16 02:41:58;;;;;;;12.25;7.22;;;;;;;;;;6308032;22;20641;-87
2021/06/16 02:45:05;;;;;;;13.93;7.25;;;;;;;;;;6308059;22;20177;-88
2021/06/16 02:48:11;;;;;;;13.45;6.80;;;;;;;;;;6309801;22;20248;-87
2021/06/16 02:51:16;;;;;;;17.02;6.97;;;;;;;;;;6309024;22;20231;-87
2021/06/16 02:54:22;;;;;;;14.45;7.55;;;;;;;;;;6309537;22;20169;-88
2021/06/16 02:57:27;;;;;;;13.50;7.13;;;;;;;;;;6309466;22;20715;-88
2021/06/16 03:00:34;;;;;;;15.45;7.00;;;;;;;;;;6308542;22;20172;-86
2021/06/16 03:03:39;;;;;;;14.55;7.32;;;;;;;;;;6309018;22;20165;-87
2021/06/16 03:06:44;;;;;;;16.30;7.28;;;;;;;;;;6309783;22;20169;-87
2021/06/16 03:09:50;;;;;;;19.92;7.78;;;;;;;;;;6309409;22;20169;-87
2021/06/16 03:12:55;;;;;;;15.77;7.60;;;;;;;;;;6309037;22;20169;-85
2021/06/16 03:16:02;;;;;;;12.55;7.15;;;;;;;;;;6308646;22;20173;-88
2021/06/16 03:19:07;;;;;;;16.10;6.80;;;;;;;;;;6309667;22;20189;-86
2021/06/16 03:22:13;;;;;;;13.32;7.47;;;;;;;;;;6308059;22;20221;-88
2021/06/16 03:25:18;;;;;;;16.33;8.50;;;;;;;;;;6308646;22;20239;-87
2021/06/16 03:28:23;;;;;;;14.02;8.30;;;;;;;;;;6308711;22;20208;-87
2021/06/16 03:31:29;;;;;;;16.80;8.75;;;;;;;;;;6309176;22;20250;-87
2021/06/16 03:34:34;;;;;;;14.50;9.00;;;;;;;;;;6308711;22;20169;-87
2021/06/16 03:37:39;;;;;;;14.68;8.57;;;;;;;;;;6309605;22;20173;-87
2021/06/16 03:40:45;;;;;;;16.88;8.07;;;;;;;;;;6308781;22;20214;-87
2021/06/16 03:43:51;;;;;;;16.17;8.07;;;;;;;;;;6308302;22;20197;-87
2021/06/16 03:46:58;;;;;;;17.42;8.07;;;;;;;;;;6311083;22;20503;-87
2021/06/16 03:50:04;;;;;;;19.58;7.97;;;;;;;;;;6309020;22;20161;-87
2021/06/16 03:53:10;;;;;;;15.30;7.70;;;;;;;;;;6307562;22;20174;-86
2021/06/16 03:56:15;;;;;;;12.48;7.53;;;;;;;;;;6308410;22;20259;-86
2021/06/16 03:59:21;;;;;;;17.17;7.85;;;;;;;;;;6308209;22;20242;-87
2021/06/16 04:02:30;;;;;;;10.95;7.30;;;;;;;;;;6306608;22;20188;-88
2021/06/16 04:05:35;;;;;;;14.07;6.88;;;;;;;;;;6311673;22;20619;-89
2021/06/16 04:08:40;;;;;;;11.57;6.78;;;;;;;;;;6311028;22;20161;-87
2021/06/16 04:12:12;;;;;;;13.35;7.10;;;;;;;;;;6309110;22;20303;-87
2021/06/16 04:15:17;;;;;;;13.70;6.97;;;;;;;;;;6311670;22;20247;-87
2021/06/16 04:18:23;;;;;;;18.65;7.13;;;;;;;;;;6310296;22;20209;-86
2021/06/16 04:21:28;;;;;;;13.45;7.20;;;;;;;;;;6311313;22;20172;-86
2021/06/16 04:24:33;;;;;;;11.50;6.82;;;;;;;;;;6311002;22;20289;-87
2021/06/16 04:27:38;;;;;;;13.32;7.07;;;;;;;;;;6311113;22;20169;-88
2021/06/16 04:30:43;;;;;;;15.18;6.40;;;;;;;;;;6309461;22;20165;-86
2021/06/16 04:33:49;;;;;;;15.10;6.70;;;;;;;;;;6310337;22;20165;-86
2021/06/16 04:36:53;;;;;;;20.55;8.60;;;;;;;;;;6311838;22;20173;-87
2021/06/16 04:39:58;;;;;;;11.93;6.88;;;;;;;;;;6311626;22;20203;-88
2021/06/16 04:43:04;;;;;;;12.27;5.95;;;;;;;;;;6309717;22;20528;-88
2021/06/16 04:46:08;;;;;;;9.82;6.30;;;;;;;;;;6310870;22;20628;-87
2021/06/16 04:49:15;;;;;;;13.82;7.53;;;;;;;;;;6311730;22;20165;-86
2021/06/16 04:52:19;;;;;;;10.25;6.50;;;;;;;;;;6308971;22;20535;-86
2021/06/16 04:55:24;;;;;;;11.48;6.07;;;;;;;;;;6311377;22;20505;-86
2021/06/16 04:58:29;;;;;;;11.55;5.90;;;;;;;;;;6310754;22;20196;-86
2021/06/16 05:01:35;;;;;;;13.70;6.82;;;;;;;;;;6311366;22;20295;-87
2021/06/16 05:04:42;;;;;;;13.60;6.32;;;;;;;;;;6314063;22;20244;-87
2021/06/16 05:07:46;;;;;;;11.73;6.45;;;;;;;;;;6312699;22;20189;-88
2021/06/16 05:10:51;;;;;;;16.10;6.50;;;;;;;;;;6313796;22;20161;-87
2021/06/16 05:13:56;;;;;;;9.55;6.47;;;;;;;;;;6315023;22;20296;-87
2021/06/16 05:17:01;;;;;;;12.77;6.63;;;;;;;;;;6312576;22;20169;-87
2021/06/16 05:20:08;;;;;;;9.93;6.80;;;;;;;;;;6317186;22;20287;-87
2021/06/16 05:23:13;;;;;;;12.73;6.95;;;;;;;;;;6315014;22;20173;-87
2021/06/16 05:26:18;;;;;;;12.43;5.97;;;;;;;;;;6314455;22;20192;-86
2021/06/16 05:29:23;;;;;;;12.57;6.28;;;;;;;;;;6313978;22;20161;-87
2021/06/16 05:32:28;;;;;;;15.90;6.32;;;;;;;;;;6314720;22;20164;-87
2021/06/16 05:35:35;;;;;;;11.45;6.30;;;;;;;;;;6317148;22;20173;-86
2021/06/16 05:38:39;;;;;;;14.35;7.07;;;;;;;;;;6316861;22;20189;-86
2021/06/16 05:41:44;;;;;;;14.77;7.00;;;;;;;;;;6317185;22;20490;-87
2021/06/16 05:44:49;;;;;;;12.77;6.53;;;;;;;;;;6312845;22;20196;-87
2021/06/16 05:47:54;;;;;;;11.77;6.95;;;;;;;;;;6312360;22;20203;-88
2021/06/16 05:51:00;;;;;;;8.73;5.75;;;;;;;;;;6310359;22;20165;-87
2021/06/16 05:54:09;;;;;;;9.63;6.25;;;;;;;;;;6312430;22;20184;-87
2021/06/16 05:57:15;;;;;;;18.23;6.93;;;;;;;;;;6313896;22;20172;-86
2021/06/16 06:00:21;;;;;;;10.52;5.90;;;;;;;;;;6311762;22;20231;-87
2021/06/16 06:03:26;;;;;;;12.80;6.80;;;;;;;;;;6313260;22;20515;-88
2021/06/16 06:06:32;;;;;;;12.27;6.47;;;;;;;;;;6315413;22;20169;-88
2021/06/16 06:09:37;;;;;;;14.32;7.95;;;;;;;;;;6315888;22;20169;-86
2021/06/16 06:12:43;;;;;;;14.10;7.55;;;;;;;;;;6313900;22;20216;-87
2021/06/16 06:15:47;;;;;;;13.85;6.88;;;;;;;;;;6317044;22;20169;-88
2021/06/16 06:18:52;;;;;;;12.82;6.38;;;;;;;;;;6312412;22;20188;-88
2021/06/16 06:21:59;;;;;;;8.82;5.88;;;;;;;;;;6314209;22;20176;-86
2021/06/16 06:25:04;;;;;;;11.98;6.18;;;;;;;;;;6312658;22;20585;-86
2021/06/16 06:28:09;;;;;;;17.73;7.80;;;;;;;;;;6311826;22;20219;-87
2021/06/16 06:31:14;;;;;;;16.85;7.53;;;;;;;;;;6315117;22;20176;-86
2021/06/16 06:34:21;;;;;;;12.20;6.10;;;;;;;;;;6311304;22;20169;-87
2021/06/16 06:37:28;;;;;;;14.50;7.05;;;;;;;;;;6293778;22;20171;-86
2021/06/16 06:40:33;;;;;;;10.80;5.93;;;;;;;;;;6311951;22;20193;-86
2021/06/16 06:43:37;;;;;;;16.83;6.53;;;;;;;;;;6312935;22;20261;-87
2021/06/16 06:46:42;;;;;;;12.93;6.30;;;;;;;;;;6312763;22;20173;-86
2021/06/16 06:49:47;;;;;;;15.80;6.13;;;;;;;;;;6313114;22;20503;-88
2021/06/16 06:52:53;;;;;;;8.20;5.15;;;;;;;;;;6311167;22;20172;-87
2021/06/16 06:55:59;;;;;;;10.55;5.70;;;;;;;;;;6311972;22;20173;-88
2021/06/16 06:59:04;;;;;;;13.05;5.20;;;;;;;;;;6313135;22;20621;-87
2021/06/16 07:02:09;;;;;;;9.63;5.05;;;;;;;;;;6311081;22;20192;-87
2021/06/16 07:05:14;;;;;;;11.43;4.80;;;;;;;;;;6310844;22;20165;-87
2021/06/16 07:08:24;;;;;;;10.18;5.35;;;;;;;;;;6313050;22;20218;-87
2021/06/16 07:11:29;;;;;;;14.20;5.00;;;;;;;;;;6311051;22;20160;-88
2021/06/16 07:14:37;;;;;;;8.10;4.55;;;;;;;;;;6311414;22;20755;-88
2021/06/16 07:17:42;;;;;;;9.02;5.22;;;;;;;;;;6312475;22;20173;-89
2021/06/16 07:20:49;;;;;;;8.80;5.40;;;;;;;;;;6311608;22;20204;-89
2021/06/16 07:23:56;;;;;;;13.55;6.65;;;;;;;;;;6313128;22;20174;-87
2021/06/16 07:27:01;;;;;;;10.77;5.63;;;;;;;;;;6314955;22;20306;-87
2021/06/16 07:30:07;;;;;;;10.52;4.80;;;;;;;;;;6313330;22;20174;-87
2021/06/16 07:33:15;;;;;;;13.40;5.05;;;;;;;;;;6327409;22;20192;-87
2021/06/16 07:36:23;;;;;;;8.02;4.50;;;;;;;;;;6325651;22;20215;-87
2021/06/16 07:39:45;;;;;;;10.88;4.65;;;;;;;;;;6328759;22;20173;-85
2021/06/16 07:42:51;;;;;;;10.20;4.55;;;;;;;;;;6318248;22;20259;-88
2021/06/16 07:45:56;;;;;;;12.43;4.22;;;;;;;;;;6316128;22;20284;-87
2021/06/16 07:49:02;;;;;;;9.25;3.80;;;;;;;;;;6326726;22;20172;-88
2021/06/16 07:52:07;;;;;;;6.78;3.90;;;;;;;;;;6322852;22;20240;-88
2021/06/16 07:55:12;;;;;;;12.70;4.65;;;;;;;;;;6316812;22;20161;-89
2021/06/16 07:58:19;;;;;;;8.52;3.53;;;;;;;;;;6313696;22;20172;-88
2021/06/16 08:01:24;;;;;;;8.32;3.70;;;;;;;;;;6316167;22;20192;-87
2021/06/16 08:04:29;;;;;;;9.95;3.88;;;;;;;;;;6317288;22;20169;-89
2021/06/16 08:07:34;;;;;;;5.90;3.15;;;;;;;;;;6317388;22;20148;-89
2021/06/16 08:10:39;;;;;;;6.88;3.60;;;;;;;;;;6313121;22;20165;-88
2021/06/16 08:13:47;;;;;;;7.97;3.60;;;;;;;;;;6314672;22;20169;-88
2021/06/16 08:16:51;;;;;;;7.82;3.70;;;;;;;;;;6314916;22;20175;-89
2021/06/16 08:19:56;;;;;;;6.28;3.65;;;;;;;;;;6321321;22;20188;-90
2021/06/16 08:23:05;;;;;;;4.88;3.70;;;;;;;;;;6316397;22;20168;-90
2021/06/16 08:26:10;;;;;;;6.63;3.85;;;;;;;;;;6319407;22;20175;-89
2021/06/16 09:16:26;;;;;;;5.60;3.25;;;;;;;;;;6216124;22;20208;-89
2021/06/16 09:19:36;;;;;;;6.90;2.92;;;;;;;;;;6317475;22;20311;-90
2021/06/16 09:22:41;;;;;;;6.63;3.17;;;;;;;;;;6318213;22;20168;-88
2021/06/16 09:26:05;;;;;;;6.65;3.03;;;;;;;;;;6318193;22;20619;-91
2021/06/16 09:29:09;;;;;;;7.03;2.97;;;;;;;;;;6317738;22;20173;-90
2021/06/16 09:32:16;;;;;;;11.45;3.40;;;;;;;;;;6318516;22;20173;-91
2021/06/16 09:35:22;;;;;;;7.88;3.17;;;;;;;;;;6319923;22;20199;-90
2021/06/16 09:38:30;;;;;;;8.27;3.38;;;;;;;;;;6320369;22;20168;-90
2021/06/16 09:41:35;;;;;;;10.43;3.28;;;;;;;;;;6317096;22;20168;-89
2021/06/16 09:59:36;;;;;;;7.45;3.10;;;;;;;;;;6289007;22;20236;-92
2021/06/16 10:02:43;;;;;;;5.82;2.95;;;;;;;;;;6316872;22;20187;-90
2021/06/16 10:06:06;;;;;;;8.95;2.97;;;;;;;;;;6318188;22;20152;-91
2021/06/16 16:04:18;;;;;;;6.68;2.50;;;;;;;;;;6304608;22;20205;-88
2021/06/16 16:07:23;;;;;;;5.82;2.47;;;;;;;;;;6316182;22;20169;-88
2021/06/16 16:10:29;;;;;;;7.32;2.10;;;;;;;;;;6314770;22;20512;-89
2021/06/16 16:13:34;;;;;;;4.25;2.13;;;;;;;;;;6315536;22;20460;-87
2021/06/16 16:16:41;;;;;;;5.80;2.38;;;;;;;;;;6315045;22;20624;-88
2021/06/16 16:19:48;;;;;;;4.72;2.40;;;;;;;;;;6317279;22;20311;-87
2021/06/16 16:22:53;;;;;;;4.68;2.67;;;;;;;;;;6314776;22;20303;-87
2021/06/16 16:25:58;;;;;;;5.22;2.50;;;;;;;;;;6315912;22;20219;-88
2021/06/16 16:29:04;;;;;;;16.85;2.90;;;;;;;;;;6315639;22;20241;-88
2021/06/16 16:32:13;;;;;;;5.03;2.58;;;;;;;;;;6316164;22;20675;-87
2021/06/16 16:35:19;;;;;;;3.42;2.38;;;;;;;;;;6315205;22;20215;-87
2021/06/16 16:38:24;;;;;;;7.15;2.63;;;;;;;;;;6313500;22;20215;-88
2021/06/16 16:41:29;;;;;;;4.07;2.55;;;;;;;;;;6313697;22;20247;-88
2021/06/16 16:44:34;;;;;;;5.05;2.33;;;;;;;;;;6314888;22;20169;-88
2021/06/16 16:47:40;;;;;;;5.35;2.45;;;;;;;;;;6316998;22;20168;-90
2021/06/16 16:50:47;;;;;;;5.10;2.63;;;;;;;;;;6317717;22;20678;-91
2021/06/16 16:53:52;;;;;;;3.90;2.70;;;;;;;;;;6317975;22;20184;-92
2021/06/16 16:56:58;;;;;;;3.83;2.40;;;;;;;;;;6317823;22;20239;-90
2021/06/16 17:00:03;;;;;;;4.07;2.20;;;;;;;;;;6318097;22;20196;-90
2021/06/16 17:03:08;;;;;;;3.60;2.38;;;;;;;;;;6318166;22;20238;-91
2021/06/16 17:06:15;;;;;;;8.13;2.70;;;;;;;;;;6319953;22;20177;-90
2021/06/16 17:09:20;;;;;;;7.53;2.70;;;;;;;;;;6317185;22;20169;-91
2021/06/16 17:12:27;;;;;;;6.70;2.65;;;;;;;;;;6317253;22;20263;-90
2021/06/16 17:15:32;;;;;;;4.63;2.17;;;;;;;;;;6317612;22;20239;-89
2021/06/16 17:18:38;;;;;;;3.30;2.10;;;;;;;;;;6318274;22;20188;-89
2021/06/16 17:21:46;;;;;;;6.63;3.55;;;;;;;;;;6324225;22;20204;-90
2021/06/16 17:24:56;;;;;;;6.57;2.80;;;;;;;;;;6323821;22;20176;-90
2021/06/16 17:28:01;;;;;;;7.53;2.88;;;;;;;;;;6323368;22;20165;-91
2021/06/16 17:31:10;;;;;;;4.65;2.72;;;;;;;;;;6325338;22;20149;-90
2021/06/16 17:34:16;;;;;;;8.05;2.70;;;;;;;;;;6322474;22;20188;-89
2021/06/16 17:37:22;;;;;;;5.85;2.90;;;;;;;;;;6320292;22;20228;-91
2021/06/16 17:40:29;;;;;;;10.32;3.20;;;;;;;;;;6320278;22;20188;-90
2021/06/16 17:43:36;;;;;;;4.18;2.47;;;;;;;;;;6319871;22;20200;-90
2021/06/16 17:46:41;;;;;;;6.85;3.03;;;;;;;;;;6317030;22;20222;-90
2021/06/16 17:49:48;;;;;;;6.95;3.35;;;;;;;;;;6318204;22;20212;-89
2021/06/16 17:52:55;;;;;;;11.07;2.58;;;;;;;;;;6316589;22;20172;-87
2021/06/16 17:56:00;;;;;;;7.50;2.75;;;;;;;;;;6316068;22;20168;-89
2021/06/16 17:59:13;;;;;;;5.20;2.85;;;;;;;;;;6314007;22;20191;-91
2021/06/16 18:02:21;;;;;;;7.85;2.67;;;;;;;;;;6316765;22;20170;-89
2021/06/16 18:05:27;;;;;;;6.65;3.47;;;;;;;;;;6320379;22;20177;-90
2021/06/16 18:08:33;;;;;;;6.75;3.95;;;;;;;;;;6316802;22;20181;-90
2021/06/16 18:11:38;;;;;;;8.35;3.00;;;;;;;;;;6316843;22;20616;-90
2021/06/16 18:14:43;;;;;;;8.38;5.15;;;;;;;;;;6315945;22;20230;-92
2021/06/16 18:17:50;;;;;;;6.60;2.50;;;;;;;;;;6318097;22;20208;-90
2021/06/16 18:20:55;;;;;;;6.00;2.75;;;;;;;;;;6313339;22;20263;-90
2021/06/16 18:24:02;;;;;;;4.22;2.35;;;;;;;;;;6315837;22;20246;-90
2021/06/16 18:27:07;;;;;;;7.90;3.00;;;;;;;;;;6315584;22;20292;-91
2021/06/16 18:30:13;;;;;;;6.22;4.13;;;;;;;;;;6314682;22;20173;-89
2021/06/16 18:33:18;;;;;;;14.00;7.22;;;;;;;;;;6317376;22;20180;-90
2021/06/16 18:36:23;;;;;;;5.13;3.20;;;;;;;;;;6313764;22;20290;-90
2021/06/16 18:39:29;;;;;;;8.50;3.10;;;;;;;;;;6314470;22;20712;-90
2021/06/16 18:42:35;;;;;;;6.00;2.65;;;;;;;;;;6313098;22;20169;-90
2021/06/16 18:45:40;;;;;;;5.20;2.70;;;;;;;;;;6314045;22;20168;-91
2021/06/16 18:48:45;;;;;;;8.80;2.90;;;;;;;;;;6314437;22;20198;-91
2021/06/16 18:51:51;;;;;;;8.55;3.78;;;;;;;;;;6313817;22;20165;-89
2021/06/16 18:54:58;;;;;;;7.68;2.80;;;;;;;;;;6311483;22;20172;-89
2021/06/16 18:58:02;;;;;;;6.93;3.53;;;;;;;;;;6316357;22;20243;-89
2021/06/16 19:01:08;;;;;;;7.47;4.15;;;;;;;;;;6315695;22;20211;-89
2021/06/16 19:04:24;;;;;;;6.53;4.15;;;;;;;;;;6315210;22;20195;-88
2021/06/16 19:07:28;;;;;;;6.07;3.20;;;;;;;;;;6316451;22;20515;-90
2021/06/16 19:10:35;;;;;;;8.80;2.72;;;;;;;;;;6316242;22;20208;-90
2021/06/16 19:13:40;;;;;;;7.97;2.95;;;;;;;;;;6315776;22;20173;-90
2021/06/16 19:16:45;;;;;;;11.30;3.90;;;;;;;;;;6316095;22;20208;-89
2021/06/16 19:19:50;;;;;;;8.10;3.00;;;;;;;;;;6316244;22;20632;-91
2021/06/16 19:22:58;;;;;;;13.25;6.78;;;;;;;;;;6314943;22;20187;-91
2021/06/16 19:26:05;;;;;;;14.30;7.80;;;;;;;;;;6313607;22;20173;-90
2021/06/16 19:29:12;;;;;;;16.08;5.40;;;;;;;;;;6315782;22;20247;-91
2021/06/16 19:32:17;;;;;;;13.18;5.20;;;;;;;;;;6315909;22;20181;-88
2021/06/16 19:35:23;;;;;;;5.47;3.40;;;;;;;;;;6318655;22;20291;-89
2021/06/16 19:38:29;;;;;;;7.75;3.88;;;;;;;;;;6317329;22;20247;-89
2021/06/16 19:41:35;;;;;;;8.80;4.00;;;;;;;;;;6316515;22;20207;-88
2021/06/16 19:44:40;;;;;;;4.20;3.00;;;;;;;;;;6321234;22;20173;-91
2021/06/16 19:47:45;;;;;;;6.47;3.10;;;;;;;;;;6318167;22;20169;-89
2021/06/16 19:50:50;;;;;;;8.00;3.72;;;;;;;;;;6316288;22;20216;-87
2021/06/16 19:53:56;;;;;;;6.38;3.50;;;;;;;;;;6317599;22;20222;-89
2021/06/16 19:57:03;;;;;;;5.72;3.50;;;;;;;;;;6316280;22;20180;-86
2021/06/16 20:00:11;;;;;;;45.63;30.38;;;;;;;;;;6316785;22;20265;-89
2021/06/16 20:03:15;;;;;;;6.72;3.50;;;;;;;;;;6316555;22;20599;-89
2021/06/16 20:06:21;;;;;;;5.53;3.42;;;;;;;;;;6318453;22;20665;-89
2021/06/16 20:09:26;;;;;;;5.50;3.50;;;;;;;;;;6318132;22;20284;-89
2021/06/16 20:12:33;;;;;;;9.20;3.40;;;;;;;;;;6317310;22;20169;-89
2021/06/16 20:15:38;;;;;;;7.50;3.40;;;;;;;;;;6318138;22;20181;-90
2021/06/16 20:18:43;;;;;;;8.50;3.72;;;;;;;;;;6317150;22;20165;-88
2021/06/16 20:21:48;;;;;;;9.65;4.35;;;;;;;;;;6318087;22;20493;-89
2021/06/16 20:24:55;;;;;;;7.13;3.85;;;;;;;;;;6318882;22;20296;-89
2021/06/16 20:28:02;;;;;;;9.73;4.15;;;;;;;;;;6316990;22;20180;-89
2021/06/16 20:31:11;;;;;;;9.38;4.47;;;;;;;;;;6320045;22;20215;-88
2021/06/16 20:34:16;;;;;;;7.80;4.05;;;;;;;;;;6318074;22;20490;-89
2021/06/16 20:37:22;;;;;;;12.07;4.43;;;;;;;;;;6317933;22;20208;-89
2021/06/16 20:40:28;;;;;;;7.45;4.07;;;;;;;;;;6317131;22;20248;-90
2021/06/16 20:43:35;;;;;;;11.18;4.18;;;;;;;;;;6318610;22;20162;-88
2021/06/16 20:46:40;;;;;;;12.18;3.92;;;;;;;;;;6319904;22;20165;-90
2021/06/16 20:49:45;;;;;;;8.50;3.88;;;;;;;;;;6316572;22;20631;-89
2021/06/16 20:52:50;;;;;;;12.75;4.00;;;;;;;;;;6316966;22;20964;-90
2021/06/16 20:55:55;;;;;;;8.93;4.07;;;;;;;;;;6318305;22;20192;-89
2021/06/16 20:59:01;;;;;;;10.32;3.90;;;;;;;;;;6318705;22;20222;-89
2021/06/16 21:02:07;;;;;;;8.02;3.83;;;;;;;;;;6318530;22;20230;-89
2021/06/16 21:05:12;;;;;;;10.30;3.88;;;;;;;;;;6318684;22;20169;-88
2021/06/16 21:08:17;;;;;;;9.43;3.88;;;;;;;;;;6317148;22;20200;-88
2021/06/16 21:11:23;;;;;;;12.25;3.92;;;;;;;;;;6315448;22;20168;-90
2021/06/16 21:14:30;;;;;;;6.68;4.20;;;;;;;;;;6315358;22;20169;-89
2021/06/16 21:17:35;;;;;;;11.48;4.57;;;;;;;;;;6316955;22;20166;-89
2021/06/16 21:20:40;;;;;;;6.95;3.97;;;;;;;;;;6315071;22;20169;-90
2021/06/16 21:23:46;;;;;;;10.30;4.30;;;;;;;;;;6315234;22;20215;-90
2021/06/16 21:26:51;;;;;;;13.27;4.50;;;;;;;;;;6317078;22;20210;-90
2021/06/16 21:29:59;;;;;;;13.52;4.22;;;;;;;;;;6315865;22;20514;-89
2021/06/16 21:33:04;;;;;;;7.43;4.30;;;;;;;;;;6316403;22;20165;-89
2021/06/16 21:36:09;;;;;;;7.60;4.15;;;;;;;;;;6316606;22;20192;-89
2021/06/16 21:39:14;;;;;;;9.98;5.53;;;;;;;;;;6315317;22;20165;-89
2021/06/16 21:42:19;;;;;;;11.32;4.22;;;;;;;;;;6315365;22;20188;-88
2021/06/16 21:45:25;;;;;;;11.77;3.85;;;;;;;;;;6317357;22;20173;-89
2021/06/16 21:48:30;;;;;;;9.05;4.25;;;;;;;;;;6314627;22;20164;-89
2021/06/16 21:51:35;;;;;;;8.52;4.78;;;;;;;;;;6296784;22;20165;-88
2021/06/16 21:54:41;;;;;;;9.10;5.15;;;;;;;;;;6316338;22;20169;-89
2021/06/16 21:57:46;;;;;;;10.80;5.15;;;;;;;;;;6315423;22;20173;-88
2021/06/16 22:00:52;;;;;;;10.90;4.88;;;;;;;;;;6315599;22;20165;-90
2021/06/16 22:03:56;;;;;;;11.23;5.10;;;;;;;;;;6315996;22;20192;-89
2021/06/16 22:07:01;;;;;;;12.43;5.47;;;;;;;;;;6315374;22;20177;-89
2021/06/16 22:13:28;;;;;;;13.50;4.97;;;;;;;;;;6319718;22;20500;-88
2021/06/16 22:16:34;;;;;;;11.93;6.05;;;;;;;;;;6314945;22;20177;-87
2021/06/16 22:19:39;;;;;;;10.30;5.13;;;;;;;;;;6313980;22;20336;-88
2021/06/16 22:22:44;;;;;;;11.00;5.10;;;;;;;;;;6314750;22;20189;-88
2021/06/16 22:25:52;;;;;;;7.25;4.47;;;;;;;;;;6313757;22;20200;-88
2021/06/16 22:28:57;;;;;;;10.13;4.85;;;;;;;;;;6315314;22;20173;-89
2021/06/16 22:32:03;;;;;;;10.90;5.57;;;;;;;;;;6315080;22;20223;-89
2021/06/16 22:35:09;;;;;;;11.18;4.15;;;;;;;;;;6315752;22;20631;-88
2021/06/16 22:38:14;;;;;;;12.35;5.70;;;;;;;;;;6315206;22;20181;-89
2021/06/16 22:41:20;;;;;;;10.45;6.10;;;;;;;;;;6315480;22;20169;-88
2021/06/16 22:44:25;;;;;;;13.48;6.43;;;;;;;;;;6314804;22;20551;-88
2021/06/16 22:47:31;;;;;;;8.27;5.18;;;;;;;;;;6316723;22;20242;-87
2021/06/16 22:50:38;;;;;;;11.60;5.82;;;;;;;;;;6315675;22;20168;-88
2021/06/16 22:53:44;;;;;;;12.55;5.57;;;;;;;;;;6311573;22;20169;-87
2021/06/16 22:56:49;;;;;;;11.23;5.45;;;;;;;;;;6312150;22;20169;-86
2021/06/16 22:59:54;;;;;;;9.57;5.18;;;;;;;;;;6313516;22;20239;-88
2021/06/16 23:03:00;;;;;;;9.52;5.60;;;;;;;;;;6311217;22;20642;-89
2021/06/16 23:06:05;;;;;;;12.38;5.47;;;;;;;;;;6312082;22;20169;-88
2021/06/16 23:09:10;;;;;;;9.93;5.78;;;;;;;;;;6312653;22;20271;-87
2021/06/16 23:12:15;;;;;;;10.85;5.65;;;;;;;;;;6312596;22;20698;-88
2021/06/16 23:15:21;;;;;;;8.75;5.32;;;;;;;;;;6317065;22;20245;-87
2021/06/16 23:18:27;;;;;;;7.57;5.18;;;;;;;;;;6316947;22;20172;-88
2021/06/16 23:21:32;;;;;;;10.05;5.10;;;;;;;;;;6316971;22;20165;-88
2021/06/16 23:24:37;;;;;;;10.18;5.63;;;;;;;;;;6317027;22;20242;-88
2021/06/16 23:27:43;;;;;;;11.23;4.80;;;;;;;;;;6317152;22;20288;-88
2021/06/16 23:30:48;;;;;;;11.15;5.40;;;;;;;;;;6317015;22;20169;-85
2021/06/16 23:33:55;;;;;;;10.48;5.47;;;;;;;;;;6315883;22;20218;-87
2021/06/16 23:37:00;;;;;;;9.20;4.82;;;;;;;;;;6317092;22;20207;-88
2021/06/16 23:40:05;;;;;;;11.73;5.57;;;;;;;;;;6314034;22;20279;-88
2021/06/16 23:43:10;;;;;;;7.90;5.05;;;;;;;;;;6315340;22;20493;-87
2021/06/16 23:46:15;;;;;;;11.30;5.28;;;;;;;;;;6315342;22;20165;-88
2021/06/16 23:49:22;;;;;;;7.97;5.03;;;;;;;;;;6316671;22;20169;-87
2021/06/16 23:52:27;;;;;;;11.65;5.80;;;;;;;;;;6316542;22;20572;-88
2021/06/16 23:55:32;;;;;;;8.20;5.30;;;;;;;;;;6317145;22;20212;-87
2021/06/16 23:58:37;;;;;;;8.23;5.05;;;;;;;;;;6317285;22;20707;-87
